Terminal Aerodrome Forecast
Issued by NWS

Home | Current Version | Previous Version | Text Only | Print | Product List | Glossary On
Versions: 1 2 3 4 5 6 7 8 9 10 11 12 13 14 15 16 17 18 19 20 21 22 23 24 25 26 27 28
710
FTAK31 PAJN 200607 AAA
TAFAYA
TAF AMD
PAYA 200607Z 2006/2106 09004KT P6SM VCSH SCT008 OVC040
      TEMPO 2006/2008 BKN007 OVC012
     FM200800 11006KT P6SM VCSH SCT020 BKN030 OVC040
     FM201000 VRB03KT P6SM VCFG SCT020 BKN040
     FM201800 12010KT 6SM -RA BKN015 OVC025
      AMD LTD TO CLD VIS AND WIND=

USA.gov is the U.S. government's official web portal to all federal, state and local government web resources and services.